sensor_id;sensor_type;location;lat;lon;timestamp;temperature;humidity
59128;DHT22;44912;52.754;5.994;2024-01-16T00:01:42;1.00;99.90
59128;DHT22;44912;52.754;5.994;2024-01-16T00:04:08;1.00;99.90
59128;DHT22;44912;52.754;5.994;2024-01-16T00:06:39;0.90;99.90
59128;DHT22;44912;52.754;5.994;2024-01-16T00:09:04;1.00;99.90
59128;DHT22;44912;52.754;5.994;2024-01-16T00:11:30;0.90;99.90
59128;DHT22;44912;52.754;5.994;2024-01-16T00:13:56;0.80;99.90
59128;DHT22;44912;52.754;5.994;2024-01-16T00:16:21;0.70;99.90
59128;DHT22;44912;52.754;5.994;2024-01-16T00:18:47;0.60;99.90
59128;DHT22;44912;52.754;5.994;2024-01-16T00:21:13;0.50;99.90
59128;DHT22;44912;52.754;5.994;2024-01-16T00:23:38;0.40;99.90
59128;DHT22;44912;52.754;5.994;2024-01-16T00:26:04;0.20;99.90
59128;DHT22;44912;52.754;5.994;2024-01-16T00:28:31;0.20;99.90
59128;DHT22;44912;52.754;5.994;2024-01-16T00:30:57;0.10;99.90
59128;DHT22;44912;52.754;5.994;2024-01-16T00:33:23;0.10;99.90
59128;DHT22;44912;52.754;5.994;2024-01-16T00:35:48;0.10;99.90
59128;DHT22;44912;52.754;5.994;2024-01-16T00:38:14;0.20;99.90
59128;DHT22;44912;52.754;5.994;2024-01-16T00:40:39;0.30;99.90
59128;DHT22;44912;52.754;5.994;2024-01-16T00:43:05;0.30;99.90
59128;DHT22;44912;52.754;5.994;2024-01-16T00:45:30;0.40;99.90
59128;DHT22;44912;52.754;5.994;2024-01-16T00:47:56;0.40;99.90
59128;DHT22;44912;52.754;5.994;2024-01-16T00:50:22;0.40;99.90
59128;DHT22;44912;52.754;5.994;2024-01-16T00:52:47;0.40;99.90
59128;DHT22;44912;52.754;5.994;2024-01-16T00:55:13;0.40;99.90
59128;DHT22;44912;52.754;5.994;2024-01-16T00:57:39;0.40;99.90
59128;DHT22;44912;52.754;5.994;2024-01-16T01:00:05;0.40;99.90
59128;DHT22;44912;52.754;5.994;2024-01-16T01:02:31;0.40;99.90
59128;DHT22;44912;52.754;5.994;2024-01-16T01:04:56;0.40;99.90
59128;DHT22;44912;52.754;5.994;2024-01-16T01:07:22;0.40;99.90
59128;DHT22;44912;52.754;5.994;2024-01-16T01:09:47;0.50;99.90
59128;DHT22;44912;52.754;5.994;2024-01-16T01:12:13;0.50;99.90
59128;DHT22;44912;52.754;5.994;2024-01-16T01:14:39;0.60;99.90
59128;DHT22;44912;52.754;5.994;2024-01-16T01:17:04;0.50;99.90
59128;DHT22;44912;52.754;5.994;2024-01-16T01:19:30;0.50;99.90
59128;DHT22;44912;52.754;5.994;2024-01-16T01:21:56;0.50;99.90
59128;DHT22;44912;52.754;5.994;2024-01-16T01:24:21;0.50;99.90
59128;DHT22;44912;52.754;5.994;2024-01-16T01:26:47;0.50;99.90
59128;DHT22;44912;52.754;5.994;2024-01-16T01:29:12;0.60;99.90
59128;DHT22;44912;52.754;5.994;2024-01-16T01:31:38;0.60;99.90
59128;DHT22;44912;52.754;5.994;2024-01-16T01:34:04;0.70;99.90
59128;DHT22;44912;52.754;5.994;2024-01-16T01:36:29;0.70;99.90
59128;DHT22;44912;52.754;5.994;2024-01-16T01:38:55;0.80;99.90
59128;DHT22;44912;52.754;5.994;2024-01-16T01:41:21;0.80;99.90
59128;DHT22;44912;52.754;5.994;2024-01-16T01:43:46;0.90;99.90
59128;DHT22;44912;52.754;5.994;2024-01-16T01:46:18;1.00;99.90
59128;DHT22;44912;52.754;5.994;2024-01-16T01:48:46;1.10;99.90
59128;DHT22;44912;52.754;5.994;2024-01-16T01:51:13;1.00;99.90
59128;DHT22;44912;52.754;5.994;2024-01-16T01:53:41;0.90;99.90
59128;DHT22;44912;52.754;5.994;2024-01-16T01:56:08;0.90;99.90
59128;DHT22;44912;52.754;5.994;2024-01-16T01:58:36;0.80;99.90
59128;DHT22;44912;52.754;5.994;2024-01-16T02:01:03;0.90;99.90
59128;DHT22;44912;52.754;5.994;2024-01-16T02:03:34;0.90;99.90
59128;DHT22;44912;52.754;5.994;2024-01-16T02:06:00;0.90;99.90
59128;DHT22;44912;52.754;5.994;2024-01-16T02:08:26;0.90;99.90
59128;DHT22;44912;52.754;5.994;2024-01-16T02:10:52;0.80;99.90
59128;DHT22;44912;52.754;5.994;2024-01-16T02:13:19;0.80;99.90
59128;DHT22;44912;52.754;5.994;2024-01-16T02:15:49;0.90;99.90
59128;DHT22;44912;52.754;5.994;2024-01-16T02:18:14;0.90;99.90
59128;DHT22;44912;52.754;5.994;2024-01-16T02:20:42;0.80;99.90
59128;DHT22;44912;52.754;5.994;2024-01-16T02:23:07;0.70;99.90
59128;DHT22;44912;52.754;5.994;2024-01-16T02:25:34;0.70;99.90
59128;DHT22;44912;52.754;5.994;2024-01-16T02:28:01;0.60;99.90
59128;DHT22;44912;52.754;5.994;2024-01-16T02:30:27;0.60;99.90
59128;DHT22;44912;52.754;5.994;2024-01-16T02:32:53;0.60;99.90
59128;DHT22;44912;52.754;5.994;2024-01-16T02:35:18;0.60;99.90
59128;DHT22;44912;52.754;5.994;2024-01-16T02:37:44;0.50;99.90
59128;DHT22;44912;52.754;5.994;2024-01-16T02:40:10;0.50;99.90
59128;DHT22;44912;52.754;5.994;2024-01-16T02:42:36;0.60;99.90
59128;DHT22;44912;52.754;5.994;2024-01-16T02:45:05;0.50;99.90
59128;DHT22;44912;52.754;5.994;2024-01-16T02:47:31;0.40;99.90
59128;DHT22;44912;52.754;5.994;2024-01-16T02:49:58;0.50;99.90
59128;DHT22;44912;52.754;5.994;2024-01-16T02:52:23;0.40;99.90
59128;DHT22;44912;52.754;5.994;2024-01-16T02:54:49;0.40;99.90
59128;DHT22;44912;52.754;5.994;2024-01-16T02:57:14;0.30;99.90
59128;DHT22;44912;52.754;5.994;2024-01-16T02:59:43;0.40;99.90
59128;DHT22;44912;52.754;5.994;2024-01-16T03:02:09;0.30;99.90
59128;DHT22;44912;52.754;5.994;2024-01-16T03:04:35;0.20;99.90
59128;DHT22;44912;52.754;5.994;2024-01-16T03:07:01;0.10;99.90
59128;DHT22;44912;52.754;5.994;2024-01-16T03:09:26;0.00;99.90
59128;DHT22;44912;52.754;5.994;2024-01-16T03:11:52;0.00;99.90
59128;DHT22;44912;52.754;5.994;2024-01-16T03:14:17;0.10;99.90
59128;DHT22;44912;52.754;5.994;2024-01-16T03:16:44;0.00;99.90
59128;DHT22;44912;52.754;5.994;2024-01-16T03:19:10;0.10;99.90
59128;DHT22;44912;52.754;5.994;2024-01-16T03:21:37;0.10;99.90
59128;DHT22;44912;52.754;5.994;2024-01-16T03:24:03;0.10;99.90
59128;DHT22;44912;52.754;5.994;2024-01-16T03:26:29;0.20;99.90
59128;DHT22;44912;52.754;5.994;2024-01-16T03:28:55;0.20;99.90
59128;DHT22;44912;52.754;5.994;2024-01-16T03:31:20;0.20;99.90
59128;DHT22;44912;52.754;5.994;2024-01-16T03:33:47;0.20;99.90
59128;DHT22;44912;52.754;5.994;2024-01-16T03:36:13;0.20;99.90
59128;DHT22;44912;52.754;5.994;2024-01-16T03:38:39;0.30;99.90
59128;DHT22;44912;52.754;5.994;2024-01-16T03:41:05;0.30;99.90
59128;DHT22;44912;52.754;5.994;2024-01-16T03:43:35;0.30;99.90
59128;DHT22;44912;52.754;5.994;2024-01-16T03:46:01;0.30;99.90
59128;DHT22;44912;52.754;5.994;2024-01-16T03:48:26;0.30;99.90
59128;DHT22;44912;52.754;5.994;2024-01-16T03:50:52;0.30;99.90
59128;DHT22;44912;52.754;5.994;2024-01-16T03:53:20;0.30;99.90
59128;DHT22;44912;52.754;5.994;2024-01-16T03:55:47;0.20;99.90
59128;DHT22;44912;52.754;5.994;2024-01-16T03:58:12;0.20;99.90
59128;DHT22;44912;52.754;5.994;2024-01-16T04:00:38;0.10;99.90
59128;DHT22;44912;52.754;5.994;2024-01-16T04:03:04;0.00;99.90
59128;DHT22;44912;52.754;5.994;2024-01-16T04:05:30;0.00;99.90
59128;DHT22;44912;52.754;5.994;2024-01-16T04:07:57;-0.20;99.90
59128;DHT22;44912;52.754;5.994;2024-01-16T04:10:22;-0.20;99.90
59128;DHT22;44912;52.754;5.994;2024-01-16T04:12:48;-0.10;99.90
59128;DHT22;44912;52.754;5.994;2024-01-16T04:15:14;-0.20;99.90
59128;DHT22;44912;52.754;5.994;2024-01-16T04:17:40;-0.20;99.90
59128;DHT22;44912;52.754;5.994;2024-01-16T04:20:06;-0.10;99.90
59128;DHT22;44912;52.754;5.994;2024-01-16T04:22:35;-0.10;99.90
59128;DHT22;44912;52.754;5.994;2024-01-16T04:25:01;0.00;99.90
59128;DHT22;44912;52.754;5.994;2024-01-16T04:27:26;0.00;99.90
59128;DHT22;44912;52.754;5.994;2024-01-16T04:29:52;0.00;99.90
59128;DHT22;44912;52.754;5.994;2024-01-16T04:32:18;0.10;99.90
59128;DHT22;44912;52.754;5.994;2024-01-16T04:34:44;0.10;99.90
59128;DHT22;44912;52.754;5.994;2024-01-16T04:37:10;0.30;99.90
59128;DHT22;44912;52.754;5.994;2024-01-16T04:39:35;0.20;99.90
59128;DHT22;44912;52.754;5.994;2024-01-16T04:42:01;0.40;99.90
59128;DHT22;44912;52.754;5.994;2024-01-16T04:44:26;0.40;99.90
59128;DHT22;44912;52.754;5.994;2024-01-16T04:46:52;0.40;99.90
59128;DHT22;44912;52.754;5.994;2024-01-16T04:49:18;0.50;99.90
59128;DHT22;44912;52.754;5.994;2024-01-16T04:51:43;0.50;99.90
59128;DHT22;44912;52.754;5.994;2024-01-16T04:54:10;0.40;99.90
59128;DHT22;44912;52.754;5.994;2024-01-16T04:56:37;0.40;99.90
59128;DHT22;44912;52.754;5.994;2024-01-16T04:59:02;0.50;99.90
59128;DHT22;44912;52.754;5.994;2024-01-16T05:01:28;0.40;99.90
59128;DHT22;44912;52.754;5.994;2024-01-16T05:03:53;0.50;99.90
59128;DHT22;44912;52.754;5.994;2024-01-16T05:06:20;0.50;99.90
59128;DHT22;44912;52.754;5.994;2024-01-16T05:08:45;0.50;99.90
59128;DHT22;44912;52.754;5.994;2024-01-16T05:11:11;0.50;99.90
59128;DHT22;44912;52.754;5.994;2024-01-16T05:13:37;0.60;99.90
59128;DHT22;44912;52.754;5.994;2024-01-16T05:16:02;0.60;99.90
59128;DHT22;44912;52.754;5.994;2024-01-16T05:18:28;0.50;99.90
59128;DHT22;44912;52.754;5.994;2024-01-16T05:20:53;0.60;99.90
59128;DHT22;44912;52.754;5.994;2024-01-16T05:23:21;0.70;99.90
59128;DHT22;44912;52.754;5.994;2024-01-16T05:25:47;0.70;99.90
59128;DHT22;44912;52.754;5.994;2024-01-16T05:28:13;0.60;99.90
59128;DHT22;44912;52.754;5.994;2024-01-16T05:30:38;0.60;99.90
59128;DHT22;44912;52.754;5.994;2024-01-16T05:33:04;0.70;99.90
59128;DHT22;44912;52.754;5.994;2024-01-16T05:35:29;0.60;99.90
59128;DHT22;44912;52.754;5.994;2024-01-16T05:37:56;0.60;99.90
59128;DHT22;44912;52.754;5.994;2024-01-16T05:40:22;0.70;99.90
59128;DHT22;44912;52.754;5.994;2024-01-16T05:42:51;0.70;99.90
59128;DHT22;44912;52.754;5.994;2024-01-16T05:45:17;0.70;99.90
59128;DHT22;44912;52.754;5.994;2024-01-16T05:47:42;0.70;99.90
59128;DHT22;44912;52.754;5.994;2024-01-16T05:50:08;0.70;99.90
59128;DHT22;44912;52.754;5.994;2024-01-16T05:52:34;0.70;99.90
59128;DHT22;44912;52.754;5.994;2024-01-16T05:55:00;0.80;99.90
59128;DHT22;44912;52.754;5.994;2024-01-16T05:57:26;0.70;99.90
59128;DHT22;44912;52.754;5.994;2024-01-16T05:59:52;0.80;99.90
59128;DHT22;44912;52.754;5.994;2024-01-16T06:02:17;0.80;99.90
59128;DHT22;44912;52.754;5.994;2024-01-16T06:04:43;0.90;99.90
59128;DHT22;44912;52.754;5.994;2024-01-16T06:07:08;0.90;99.90
59128;DHT22;44912;52.754;5.994;2024-01-16T06:09:41;0.90;99.90
59128;DHT22;44912;52.754;5.994;2024-01-16T06:12:07;0.90;99.90
59128;DHT22;44912;52.754;5.994;2024-01-16T06:14:33;0.90;99.90
59128;DHT22;44912;52.754;5.994;2024-01-16T06:16:59;0.90;99.90
59128;DHT22;44912;52.754;5.994;2024-01-16T06:19:25;0.80;99.90
59128;DHT22;44912;52.754;5.994;2024-01-16T06:21:50;0.90;99.90
59128;DHT22;44912;52.754;5.994;2024-01-16T06:24:16;0.80;99.90
59128;DHT22;44912;52.754;5.994;2024-01-16T06:26:42;0.90;99.90
59128;DHT22;44912;52.754;5.994;2024-01-16T06:29:08;0.90;99.90
59128;DHT22;44912;52.754;5.994;2024-01-16T06:31:33;0.90;99.90
59128;DHT22;44912;52.754;5.994;2024-01-16T06:33:59;0.90;99.90
59128;DHT22;44912;52.754;5.994;2024-01-16T06:36:25;0.90;99.90
59128;DHT22;44912;52.754;5.994;2024-01-16T06:38:51;0.80;99.90
59128;DHT22;44912;52.754;5.994;2024-01-16T06:41:16;0.70;99.90
59128;DHT22;44912;52.754;5.994;2024-01-16T06:43:42;0.70;99.90
59128;DHT22;44912;52.754;5.994;2024-01-16T06:46:07;0.70;99.90
59128;DHT22;44912;52.754;5.994;2024-01-16T06:48:36;0.70;99.90
59128;DHT22;44912;52.754;5.994;2024-01-16T06:51:04;0.70;99.90
59128;DHT22;44912;52.754;5.994;2024-01-16T06:53:29;0.70;99.90
59128;DHT22;44912;52.754;5.994;2024-01-16T06:55:55;0.70;99.90
59128;DHT22;44912;52.754;5.994;2024-01-16T06:58:21;0.70;99.90
59128;DHT22;44912;52.754;5.994;2024-01-16T07:00:47;0.70;99.90
59128;DHT22;44912;52.754;5.994;2024-01-16T07:03:13;0.70;99.90
59128;DHT22;44912;52.754;5.994;2024-01-16T07:05:39;0.70;99.90
59128;DHT22;44912;52.754;5.994;2024-01-16T07:08:06;0.70;99.90
59128;DHT22;44912;52.754;5.994;2024-01-16T07:10:32;0.60;99.90
59128;DHT22;44912;52.754;5.994;2024-01-16T07:12:59;0.70;99.90
59128;DHT22;44912;52.754;5.994;2024-01-16T07:15:25;0.70;99.90
59128;DHT22;44912;52.754;5.994;2024-01-16T07:17:51;0.80;99.90
59128;DHT22;44912;52.754;5.994;2024-01-16T07:20:16;0.80;99.90
59128;DHT22;44912;52.754;5.994;2024-01-16T07:22:42;0.90;99.90
59128;DHT22;44912;52.754;5.994;2024-01-16T07:25:07;0.90;99.90
59128;DHT22;44912;52.754;5.994;2024-01-16T07:27:33;1.00;99.90
59128;DHT22;44912;52.754;5.994;2024-01-16T07:29:59;0.80;99.90
59128;DHT22;44912;52.754;5.994;2024-01-16T07:32:25;0.90;99.90
59128;DHT22;44912;52.754;5.994;2024-01-16T07:34:51;0.90;99.90
59128;DHT22;44912;52.754;5.994;2024-01-16T07:37:18;0.90;99.90
59128;DHT22;44912;52.754;5.994;2024-01-16T07:39:44;0.90;99.90
59128;DHT22;44912;52.754;5.994;2024-01-16T07:42:09;0.90;99.90
59128;DHT22;44912;52.754;5.994;2024-01-16T07:44:36;0.90;99.90
59128;DHT22;44912;52.754;5.994;2024-01-16T07:47:02;0.80;99.90
59128;DHT22;44912;52.754;5.994;2024-01-16T07:49:27;0.90;99.90
59128;DHT22;44912;52.754;5.994;2024-01-16T07:51:53;1.00;99.90
59128;DHT22;44912;52.754;5.994;2024-01-16T07:54:18;0.90;99.90
59128;DHT22;44912;52.754;5.994;2024-01-16T07:56:44;0.90;99.90
59128;DHT22;44912;52.754;5.994;2024-01-16T07:59:10;0.90;99.90
59128;DHT22;44912;52.754;5.994;2024-01-16T08:01:36;0.90;99.90
59128;DHT22;44912;52.754;5.994;2024-01-16T08:04:03;0.90;99.90
59128;DHT22;44912;52.754;5.994;2024-01-16T08:06:29;0.90;99.90
59128;DHT22;44912;52.754;5.994;2024-01-16T08:08:55;0.90;99.90
59128;DHT22;44912;52.754;5.994;2024-01-16T08:11:20;1.00;99.90
59128;DHT22;44912;52.754;5.994;2024-01-16T08:13:46;1.00;99.90
59128;DHT22;44912;52.754;5.994;2024-01-16T08:16:12;1.00;99.90
59128;DHT22;44912;52.754;5.994;2024-01-16T08:18:37;1.10;99.90
59128;DHT22;44912;52.754;5.994;2024-01-16T08:21:03;1.10;99.90
59128;DHT22;44912;52.754;5.994;2024-01-16T08:23:29;1.10;99.90
59128;DHT22;44912;52.754;5.994;2024-01-16T08:25:54;1.10;99.90
59128;DHT22;44912;52.754;5.994;2024-01-16T08:28:20;1.00;99.90
59128;DHT22;44912;52.754;5.994;2024-01-16T08:30:47;1.10;99.90
59128;DHT22;44912;52.754;5.994;2024-01-16T08:33:12;1.00;99.90
59128;DHT22;44912;52.754;5.994;2024-01-16T08:35:38;1.10;99.90
59128;DHT22;44912;52.754;5.994;2024-01-16T08:38:04;1.20;99.90
59128;DHT22;44912;52.754;5.994;2024-01-16T08:40:30;1.20;99.90
59128;DHT22;44912;52.754;5.994;2024-01-16T08:42:56;1.30;99.90
59128;DHT22;44912;52.754;5.994;2024-01-16T08:45:22;1.20;99.90
59128;DHT22;44912;52.754;5.994;2024-01-16T08:47:48;1.10;99.90
59128;DHT22;44912;52.754;5.994;2024-01-16T08:50:13;1.10;99.90
59128;DHT22;44912;52.754;5.994;2024-01-16T08:52:40;1.20;99.90
59128;DHT22;44912;52.754;5.994;2024-01-16T08:55:05;1.30;99.90
59128;DHT22;44912;52.754;5.994;2024-01-16T08:57:31;1.20;99.90
59128;DHT22;44912;52.754;5.994;2024-01-16T08:59:57;1.30;99.90
59128;DHT22;44912;52.754;5.994;2024-01-16T09:02:22;1.30;99.90
59128;DHT22;44912;52.754;5.994;2024-01-16T09:04:49;1.30;99.90
59128;DHT22;44912;52.754;5.994;2024-01-16T09:07:16;1.20;99.90
59128;DHT22;44912;52.754;5.994;2024-01-16T09:09:42;1.30;99.90
59128;DHT22;44912;52.754;5.994;2024-01-16T09:12:09;1.20;99.90
59128;DHT22;44912;52.754;5.994;2024-01-16T09:14:34;1.30;99.90
59128;DHT22;44912;52.754;5.994;2024-01-16T09:17:00;1.20;99.90
59128;DHT22;44912;52.754;5.994;2024-01-16T09:19:26;1.30;99.90
59128;DHT22;44912;52.754;5.994;2024-01-16T09:21:51;1.30;99.90
59128;DHT22;44912;52.754;5.994;2024-01-16T09:24:17;1.40;99.90
59128;DHT22;44912;52.754;5.994;2024-01-16T09:26:44;1.40;99.90
59128;DHT22;44912;52.754;5.994;2024-01-16T09:29:10;1.40;99.90
59128;DHT22;44912;52.754;5.994;2024-01-16T09:31:36;1.60;99.90
59128;DHT22;44912;52.754;5.994;2024-01-16T09:34:03;1.50;99.90
59128;DHT22;44912;52.754;5.994;2024-01-16T09:36:29;1.60;99.90
59128;DHT22;44912;52.754;5.994;2024-01-16T09:38:55;1.50;99.90
59128;DHT22;44912;52.754;5.994;2024-01-16T09:41:20;1.50;99.90
59128;DHT22;44912;52.754;5.994;2024-01-16T09:43:47;1.50;99.90
59128;DHT22;44912;52.754;5.994;2024-01-16T09:46:15;1.50;99.90
59128;DHT22;44912;52.754;5.994;2024-01-16T09:48:42;1.50;99.90
59128;DHT22;44912;52.754;5.994;2024-01-16T09:51:10;1.50;99.90
59128;DHT22;44912;52.754;5.994;2024-01-16T09:53:41;1.50;99.90
59128;DHT22;44912;52.754;5.994;2024-01-16T09:56:21;1.50;99.90
59128;DHT22;44912;52.754;5.994;2024-01-16T09:58:48;1.40;99.90
59128;DHT22;44912;52.754;5.994;2024-01-16T10:01:15;1.50;99.90
59128;DHT22;44912;52.754;5.994;2024-01-16T10:03:44;1.40;99.90
59128;DHT22;44912;52.754;5.994;2024-01-16T10:06:10;1.40;99.90
59128;DHT22;44912;52.754;5.994;2024-01-16T10:08:37;1.50;99.90
59128;DHT22;44912;52.754;5.994;2024-01-16T10:11:02;1.30;99.90
59128;DHT22;44912;52.754;5.994;2024-01-16T10:13:28;1.40;99.90
59128;DHT22;44912;52.754;5.994;2024-01-16T10:15:55;1.20;99.90
59128;DHT22;44912;52.754;5.994;2024-01-16T10:18:25;1.20;99.90
59128;DHT22;44912;52.754;5.994;2024-01-16T10:20:51;1.20;99.90
59128;DHT22;44912;52.754;5.994;2024-01-16T10:23:25;1.20;99.90
59128;DHT22;44912;52.754;5.994;2024-01-16T10:26:13;1.10;99.90
59128;DHT22;44912;52.754;5.994;2024-01-16T10:28:43;1.00;99.90
59128;DHT22;44912;52.754;5.994;2024-01-16T10:31:10;0.90;99.90
59128;DHT22;44912;52.754;5.994;2024-01-16T10:33:37;0.90;99.90
59128;DHT22;44912;52.754;5.994;2024-01-16T10:36:14;0.90;99.90
59128;DHT22;44912;52.754;5.994;2024-01-16T10:38:45;0.80;99.90
59128;DHT22;44912;52.754;5.994;2024-01-16T10:41:17;0.80;99.90
59128;DHT22;44912;52.754;5.994;2024-01-16T10:43:43;0.90;99.90
59128;DHT22;44912;52.754;5.994;2024-01-16T10:46:17;0.90;99.90
59128;DHT22;44912;52.754;5.994;2024-01-16T10:48:45;0.90;99.90
59128;DHT22;44912;52.754;5.994;2024-01-16T10:51:23;1.00;99.90
59128;DHT22;44912;52.754;5.994;2024-01-16T10:53:56;1.00;99.90
59128;DHT22;44912;52.754;5.994;2024-01-16T10:56:24;1.00;99.90
59128;DHT22;44912;52.754;5.994;2024-01-16T10:59:19;0.90;99.90
59128;DHT22;44912;52.754;5.994;2024-01-16T11:01:47;1.00;99.90
59128;DHT22;44912;52.754;5.994;2024-01-16T11:04:14;1.10;99.90
59128;DHT22;44912;52.754;5.994;2024-01-16T11:06:41;1.00;99.90
59128;DHT22;44912;52.754;5.994;2024-01-16T11:09:08;1.00;99.90
59128;DHT22;44912;52.754;5.994;2024-01-16T11:11:34;1.20;99.90
59128;DHT22;44912;52.754;5.994;2024-01-16T11:14:03;1.20;99.90
59128;DHT22;44912;52.754;5.994;2024-01-16T11:16:30;1.10;99.90
59128;DHT22;44912;52.754;5.994;2024-01-16T11:18:57;1.10;99.90
59128;DHT22;44912;52.754;5.994;2024-01-16T11:21:23;1.30;99.90
59128;DHT22;44912;52.754;5.994;2024-01-16T11:23:49;1.40;99.90
59128;DHT22;44912;52.754;5.994;2024-01-16T11:26:28;1.50;99.90
59128;DHT22;44912;52.754;5.994;2024-01-16T11:28:57;1.60;99.90
59128;DHT22;44912;52.754;5.994;2024-01-16T11:31:32;1.70;99.90
59128;DHT22;44912;52.754;5.994;2024-01-16T11:33:59;1.90;99.90
59128;DHT22;44912;52.754;5.994;2024-01-16T11:39:10;1.90;99.90
59128;DHT22;44912;52.754;5.994;2024-01-16T11:41:48;1.90;99.90
59128;DHT22;44912;52.754;5.994;2024-01-16T11:44:38;2.10;99.90
59128;DHT22;44912;52.754;5.994;2024-01-16T11:47:04;2.00;99.90
59128;DHT22;44912;52.754;5.994;2024-01-16T11:49:30;2.10;99.90
59128;DHT22;44912;52.754;5.994;2024-01-16T11:51:57;2.20;99.90
59128;DHT22;44912;52.754;5.994;2024-01-16T11:54:23;2.20;99.90
59128;DHT22;44912;52.754;5.994;2024-01-16T12:02:42;2.30;99.90
59128;DHT22;44912;52.754;5.994;2024-01-16T12:05:11;2.30;99.90
59128;DHT22;44912;52.754;5.994;2024-01-16T12:07:49;2.10;99.90
59128;DHT22;44912;52.754;5.994;2024-01-16T12:10:16;2.20;99.90
59128;DHT22;44912;52.754;5.994;2024-01-16T12:12:42;2.20;99.90
59128;DHT22;44912;52.754;5.994;2024-01-16T12:15:22;2.20;99.90
59128;DHT22;44912;52.754;5.994;2024-01-16T12:17:58;2.20;99.90
59128;DHT22;44912;52.754;5.994;2024-01-16T12:20:30;2.20;99.90
59128;DHT22;44912;52.754;5.994;2024-01-16T12:23:02;2.20;99.90
59128;DHT22;44912;52.754;5.994;2024-01-16T12:25:29;2.10;99.90
59128;DHT22;44912;52.754;5.994;2024-01-16T12:28:05;2.20;99.90
59128;DHT22;44912;52.754;5.994;2024-01-16T12:30:36;2.10;99.90
59128;DHT22;44912;52.754;5.994;2024-01-16T12:33:08;2.20;99.90
59128;DHT22;44912;52.754;5.994;2024-01-16T12:35:42;2.20;99.90
59128;DHT22;44912;52.754;5.994;2024-01-16T12:38:08;2.10;99.90
59128;DHT22;44912;52.754;5.994;2024-01-16T12:40:36;2.30;99.90
59128;DHT22;44912;52.754;5.994;2024-01-16T12:43:03;2.30;99.90
59128;DHT22;44912;52.754;5.994;2024-01-16T12:45:29;2.20;99.90
59128;DHT22;44912;52.754;5.994;2024-01-16T12:47:55;2.40;99.90
59128;DHT22;44912;52.754;5.994;2024-01-16T12:50:24;2.40;99.90
59128;DHT22;44912;52.754;5.994;2024-01-16T12:55:34;2.20;99.90
59128;DHT22;44912;52.754;5.994;2024-01-16T12:58:20;2.10;99.90
59128;DHT22;44912;52.754;5.994;2024-01-16T13:00:48;2.20;99.90
59128;DHT22;44912;52.754;5.994;2024-01-16T13:03:21;2.10;99.90
59128;DHT22;44912;52.754;5.994;2024-01-16T13:05:57;2.20;99.90
59128;DHT22;44912;52.754;5.994;2024-01-16T13:08:23;2.20;99.90
59128;DHT22;44912;52.754;5.994;2024-01-16T13:11:08;2.30;99.90
59128;DHT22;44912;52.754;5.994;2024-01-16T13:13:35;2.30;99.90
59128;DHT22;44912;52.754;5.994;2024-01-16T13:16:05;2.30;99.90
59128;DHT22;44912;52.754;5.994;2024-01-16T13:18:32;2.30;99.90
59128;DHT22;44912;52.754;5.994;2024-01-16T13:20:58;2.40;99.90
59128;DHT22;44912;52.754;5.994;2024-01-16T13:23:25;2.40;99.90
59128;DHT22;44912;52.754;5.994;2024-01-16T13:25:51;2.50;99.90
59128;DHT22;44912;52.754;5.994;2024-01-16T13:28:19;2.40;99.90
59128;DHT22;44912;52.754;5.994;2024-01-16T13:30:47;2.50;99.90
59128;DHT22;44912;52.754;5.994;2024-01-16T13:33:14;2.50;99.90
59128;DHT22;44912;52.754;5.994;2024-01-16T13:35:43;2.50;99.90
59128;DHT22;44912;52.754;5.994;2024-01-16T13:38:09;2.50;99.90
59128;DHT22;44912;52.754;5.994;2024-01-16T13:40:37;2.50;99.90
59128;DHT22;44912;52.754;5.994;2024-01-16T13:43:04;2.50;99.90
59128;DHT22;44912;52.754;5.994;2024-01-16T13:45:30;2.40;99.90
59128;DHT22;44912;52.754;5.994;2024-01-16T13:47:57;2.30;99.90
59128;DHT22;44912;52.754;5.994;2024-01-16T13:50:23;2.30;99.90
59128;DHT22;44912;52.754;5.994;2024-01-16T13:52:49;2.30;99.90
59128;DHT22;44912;52.754;5.994;2024-01-16T13:55:16;2.30;99.90
59128;DHT22;44912;52.754;5.994;2024-01-16T13:57:41;2.30;99.90
59128;DHT22;44912;52.754;5.994;2024-01-16T14:00:10;2.20;99.90
59128;DHT22;44912;52.754;5.994;2024-01-16T14:02:43;2.20;99.90
59128;DHT22;44912;52.754;5.994;2024-01-16T14:05:13;2.30;99.90
59128;DHT22;44912;52.754;5.994;2024-01-16T14:07:44;2.20;99.90
59128;DHT22;44912;52.754;5.994;2024-01-16T14:10:16;2.20;99.90
59128;DHT22;44912;52.754;5.994;2024-01-16T14:12:43;2.10;99.90
59128;DHT22;44912;52.754;5.994;2024-01-16T14:15:13;2.10;99.90
59128;DHT22;44912;52.754;5.994;2024-01-16T14:17:46;2.10;99.90
59128;DHT22;44912;52.754;5.994;2024-01-16T14:20:13;2.30;99.90
59128;DHT22;44912;52.754;5.994;2024-01-16T14:22:40;2.10;99.90
59128;DHT22;44912;52.754;5.994;2024-01-16T14:25:10;2.10;99.90
59128;DHT22;44912;52.754;5.994;2024-01-16T14:27:45;2.10;99.90
59128;DHT22;44912;52.754;5.994;2024-01-16T14:30:13;2.10;99.90
59128;DHT22;44912;52.754;5.994;2024-01-16T14:32:43;2.10;99.90
59128;DHT22;44912;52.754;5.994;2024-01-16T14:35:11;2.20;99.90
59128;DHT22;44912;52.754;5.994;2024-01-16T14:37:38;2.20;99.90
59128;DHT22;44912;52.754;5.994;2024-01-16T14:40:05;2.20;99.90
59128;DHT22;44912;52.754;5.994;2024-01-16T14:42:51;2.20;99.90
59128;DHT22;44912;52.754;5.994;2024-01-16T14:45:22;2.20;99.90
59128;DHT22;44912;52.754;5.994;2024-01-16T14:47:49;2.30;99.90
59128;DHT22;44912;52.754;5.994;2024-01-16T14:50:16;2.30;99.90
59128;DHT22;44912;52.754;5.994;2024-01-16T14:52:43;2.50;99.90
59128;DHT22;44912;52.754;5.994;2024-01-16T14:55:09;2.60;99.90
59128;DHT22;44912;52.754;5.994;2024-01-16T14:57:37;2.70;99.90
59128;DHT22;44912;52.754;5.994;2024-01-16T15:00:11;2.70;99.90
59128;DHT22;44912;52.754;5.994;2024-01-16T15:02:56;2.80;99.90
59128;DHT22;44912;52.754;5.994;2024-01-16T15:05:25;2.90;99.90
59128;DHT22;44912;52.754;5.994;2024-01-16T15:07:51;3.00;99.90
59128;DHT22;44912;52.754;5.994;2024-01-16T15:10:20;2.90;99.90
59128;DHT22;44912;52.754;5.994;2024-01-16T15:12:46;2.90;99.90
59128;DHT22;44912;52.754;5.994;2024-01-16T15:15:14;2.90;99.90
59128;DHT22;44912;52.754;5.994;2024-01-16T15:17:41;2.80;99.90
59128;DHT22;44912;52.754;5.994;2024-01-16T15:20:08;2.90;99.90
59128;DHT22;44912;52.754;5.994;2024-01-16T15:22:42;2.80;99.90
59128;DHT22;44912;52.754;5.994;2024-01-16T15:25:11;2.80;99.90
59128;DHT22;44912;52.754;5.994;2024-01-16T15:27:39;2.80;99.90
59128;DHT22;44912;52.754;5.994;2024-01-16T15:30:05;2.70;99.90
59128;DHT22;44912;52.754;5.994;2024-01-16T15:32:33;2.60;99.90
59128;DHT22;44912;52.754;5.994;2024-01-16T15:34:59;2.70;99.90
59128;DHT22;44912;52.754;5.994;2024-01-16T15:37:26;2.50;99.90
59128;DHT22;44912;52.754;5.994;2024-01-16T15:39:52;2.50;99.90
59128;DHT22;44912;52.754;5.994;2024-01-16T15:42:18;2.40;99.90
59128;DHT22;44912;52.754;5.994;2024-01-16T15:44:43;2.30;99.90
59128;DHT22;44912;52.754;5.994;2024-01-16T15:47:09;2.30;99.90
59128;DHT22;44912;52.754;5.994;2024-01-16T15:49:35;2.20;99.90
59128;DHT22;44912;52.754;5.994;2024-01-16T15:52:02;2.20;99.90
59128;DHT22;44912;52.754;5.994;2024-01-16T15:54:28;2.10;99.90
59128;DHT22;44912;52.754;5.994;2024-01-16T15:56:56;2.10;99.90